Elon, NC

06:12 EST le 02 Mars 2015 (GMT -0500)
Burlington | Change Station
CLOSE
Current Station
Stations météorologiques personnelles
Location: Burlington, NC
Altitude: 646 ft
Stations météo à proximité
Avis météorologiques actifs: Dense Fog Advisory Préavis actif: Local Storm Report, Public Information Statement

Alt. 646 ft 36.10 °N, 79.47 °W | Updated 12 minutes ago

Brouillard
Brouillard
36.7 ° F
Paraît 37 ° F
N
2.7
Vent Variable Vent de OSO

Aujourd'hui
Haut(e) -- | Bas -- ° F
--% Risque de précip.
Hier
Haut(e) -- | Bas -- ° F
Precip. -- pouce
6:47 AM 6:13 PM
Lune gibbeuse croissante, 91% visible
Pression 30.20 pouce
Visibilité 0.5 Miles terrestres
Nuages
Refroidissement éolien 37 ° F
Point de rosée 36 ° F
Humidité 99%
Précipitations 0.00 pouce
Profondeur de la couche neigeuse Non disponible.
UV Non disponible.
Pollen .90 sur 12
Qualité de l'air Non disponible.
Flu Activity Non disponible.
METAR KBUY 021054Z AUTO 24005KT 1/2SM FG VV002 03/02 A3019 RMK AO2 SLP225 T00280017

More Conditions Fewer Conditions

Pression 30.20 pouce
Visibilité 0.5 Miles terrestres
Nuages
Refroidissement éolien 37 ° F
Point de rosée 36 ° F
Humidité 99%
Précipitations 0.00 pouce
Profondeur de la couche neigeuse Non disponible.
UV Non disponible.
Pollen .90 sur 12
Qualité de l'air Non disponible.
Flu Activity Non disponible.
METAR KBUY 021054Z AUTO 24005KT 1/2SM FG VV002 03/02 A3019 RMK AO2 SLP225 T00280017

More Conditions Fewer Conditions

10-Day Weather Forecast

Almanac

Astronomie

Mar. 02, 2015 Lever Coucher
Temps réel
Crépuscule civil
Crépuscule nautique
Crépuscule astronomique
Lune
Durée de lumière visible
Longueur du jour
Tomorrow will be .
, % of the Moon is Illuminated

Extrêmes aujourd'hui

State Highs State Lows

Community

WunderPhotos

Upload Photos

1,801,756 Photos téléchargées !

WunderBlogs® & News

Nearby

Qualité de l'air

  Qualité de l'air Indice de la qualité de l'air Polluant
Not available.

Épaisseur de neige

Station Depth Altitude

Activité sismique

Ville Distance Mag. Time & Date
Minimum magnitude displayed is 2.5.

Températures des eaux côtières

Lieu Température

Stations météo à proximité

Dense Fog Advisory
Statement as of 02:57 EST le 02 Mars 2015

... Dense fog advisory in effect until 10 am EST this morning...

The National Weather Service in Raleigh has issued a dense fog
advisory... which is in effect until 10 am EST this morning.

* Visibility... one quarter mile or lower.

* Impacts... significant reductions in visibility will result in
dangerous travel conditions this morning.

Precautionary/preparedness actions...

A dense fog advisory means that visibilities will frequently be
reduced to one quarter mile or less. If driving... slow down...
use low beam headlights... and leave plenty of following
distance... especially at intersections and Highway onramps and
offramps where accidents are most likely.


Vincent